Time;durP1;ratioP1;P1;durP2;ratioP2;P2;SDS_P1;SDS_P2;PMS_P1;PMS_P2;Temp;Humidity;BMP_temperature;BMP_pressure;BME280_temperature;BME280_humidity;BME280_pressure;Samples;Min_cycle;Max_cycle;Signal;HPM_P1;HPM_P2
2023/03/06 05:48:04;;;;;;;;;49.00;36.50;;;;;5.66;100.00;100718.69;5421321;23;49997;-69
2023/03/06 05:50:29;;;;;;;;;33.50;28.25;;;;;5.83;100.00;100725.47;4921821;28;49857;-64
2023/03/06 05:52:54;;;;;;;;;45.00;33.75;;;;;5.86;100.00;100716.88;4918011;28;49749;-68
2023/03/06 05:55:21;;;;;;;;;41.00;37.75;;;;;5.86;100.00;100714.28;4914455;28;49805;-62
2023/03/06 05:57:47;;;;;;;;;30.00;29.00;;;;;5.81;100.00;100697.59;4912764;28;49736;-66
2023/03/06 06:00:13;;;;;;;;;42.75;34.75;;;;;5.79;100.00;100700.13;4924086;28;49562;-68
2023/03/06 06:02:40;;;;;;;;;32.00;29.00;;;;;5.79;100.00;100694.00;4917300;28;49763;-67
2023/03/06 06:05:06;;;;;;;;;31.75;29.50;;;;;5.91;100.00;100702.34;4927424;28;49773;-68
2023/03/06 06:07:31;;;;;;;;;34.25;27.75;;;;;5.93;100.00;100711.13;4927799;28;49622;-68
2023/03/06 06:09:57;;;;;;;;;31.00;28.50;;;;;5.81;100.00;100689.78;4929715;28;49370;-69
2023/03/06 06:12:22;;;;;;;;;37.25;34.25;;;;;5.77;100.00;100685.25;4921875;28;50350;-73
2023/03/06 06:14:48;;;;;;;;;37.75;32.75;;;;;5.70;100.00;100679.84;4912834;28;49782;-75
2023/03/06 06:17:13;;;;;;;;;33.25;33.25;;;;;5.52;100.00;100658.28;4912546;28;49635;-67
2023/03/06 06:19:38;;;;;;;;;34.25;31.75;;;;;5.41;100.00;100638.75;4923156;28;49840;-70
2023/03/06 06:22:04;;;;;;;;;32.75;26.75;;;;;5.63;100.00;100689.94;4930201;28;49570;-68
2023/03/06 06:24:30;;;;;;;;;38.25;33.75;;;;;5.64;100.00;100684.78;4910344;28;49874;-73
2023/03/06 06:26:57;;;;;;;;;36.75;32.25;;;;;5.83;100.00;100724.59;4913754;28;49618;-70
2023/03/06 06:29:24;;;;;;;;;37.25;33.25;;;;;5.83;100.00;100735.00;4915118;28;50100;-73
2023/03/06 06:31:51;;;;;;;;;33.00;30.25;;;;;5.30;100.00;100646.09;4911906;28;50168;-72
2023/03/06 06:34:17;;;;;;;;;35.50;34.25;;;;;5.82;100.00;100748.84;4912088;28;49811;-74
2023/03/06 06:36:43;;;;;;;;;38.50;36.00;;;;;4.34;100.00;100539.81;4905571;28;49904;-75
2023/03/06 06:39:09;;;;;;;;;33.25;27.25;;;;;4.68;100.00;100582.00;4910400;28;49762;-73
2023/03/06 06:41:35;;;;;;;;;40.50;34.25;;;;;3.62;100.00;100386.16;4910682;28;49712;-72
2023/03/06 06:44:06;;;;;;;;;33.75;25.50;;;;;5.39;100.00;100690.72;4924799;28;52388;-65
2023/03/06 06:46:33;;;;;;;;;44.75;40.50;;;;;5.35;100.00;100706.16;4909894;28;50013;-66
2023/03/06 06:49:01;;;;;;;;;29.75;26.75;;;;;5.53;100.00;100716.44;4910602;28;50017;-66
2023/03/06 06:51:29;;;;;;;;;38.50;33.50;;;;;5.17;100.00;100660.34;4913597;28;50161;-69
2023/03/06 06:53:54;;;;;;;;;39.00;30.00;;;;;5.68;100.00;100767.41;4914491;28;51037;-64
2023/03/06 06:56:19;;;;;;;;;40.50;35.00;;;;;5.05;100.00;100641.63;4915372;28;49893;-71
2023/03/06 06:58:45;;;;;;;;;31.50;30.50;;;;;4.62;100.00;100554.84;4915539;28;49802;-71
2023/03/06 07:01:12;;;;;;;;;35.50;29.25;;;;;5.19;100.00;100660.41;4915795;28;49794;-71
2023/03/06 07:03:38;;;;;;;;;30.50;27.00;;;;;4.81;100.00;100612.88;4914904;28;50718;-69
2023/03/06 07:06:05;;;;;;;;;38.00;31.25;;;;;5.40;100.00;100720.25;4917731;28;49863;-72
2023/03/06 07:08:30;;;;;;;;;39.50;33.25;;;;;4.84;100.00;100622.56;4912656;28;49999;-73
2023/03/06 07:10:56;;;;;;;;;34.25;28.75;;;;;5.66;100.00;100763.84;4912692;28;49821;-74
2023/03/06 07:13:21;;;;;;;;;37.50;29.00;;;;;5.65;100.00;100775.09;4914632;28;49824;-74
2023/03/06 07:15:47;;;;;;;;;27.00;25.25;;;;;5.59;100.00;100747.91;4913527;28;49866;-76
2023/03/06 07:18:12;;;;;;;;;39.75;34.00;;;;;5.04;100.00;100619.06;4874199;28;50128;-70
2023/03/06 07:20:38;;;;;;;;;39.00;34.00;;;;;5.51;100.00;100699.88;4889292;28;50170;-71
2023/03/06 07:23:06;;;;;;;;;46.00;39.50;;;;;5.69;100.00;100731.84;4902076;28;50426;-70
2023/03/06 07:25:31;;;;;;;;;46.50;37.75;;;;;5.80;100.00;100758.34;4890119;28;49759;-75
2023/03/06 07:27:56;;;;;;;;;34.75;27.50;;;;;5.07;100.00;100621.75;4898660;28;49669;-73
2023/03/06 07:30:22;;;;;;;;;32.50;27.25;;;;;5.29;100.00;100659.06;4915178;28;49827;-75
2023/03/06 07:32:52;;;;;;;;;27.25;24.00;;;;;5.84;100.00;100753.28;4913059;28;51269;-74
2023/03/06 07:35:18;;;;;;;;;43.00;34.75;;;;;5.55;100.00;100697.44;4914831;28;49686;-74
2023/03/06 07:37:43;;;;;;;;;32.25;28.75;;;;;5.85;100.00;100748.97;4917338;28;49946;-75
2023/03/06 07:40:11;;;;;;;;;38.00;30.00;;;;;4.26;100.00;100508.34;4928447;28;49964;-73
2023/03/06 07:42:36;;;;;;;;;32.50;29.25;;;;;4.64;100.00;100577.53;4932274;28;49772;-75
2023/03/06 07:45:03;;;;;;;;;38.00;33.25;;;;;5.04;100.00;100616.44;4930883;28;49599;-74
2023/03/06 07:47:28;;;;;;;;;32.00;28.50;;;;;4.37;100.00;100526.97;4928667;28;49506;-77
2023/03/06 07:49:55;;;;;;;;;35.25;30.75;;;;;5.45;100.00;100685.78;4922103;28;49945;-77
2023/03/06 07:52:21;;;;;;;;;35.75;33.00;;;;;5.23;100.00;100643.22;4929919;28;50333;-75
2023/03/06 07:54:47;;;;;;;;;29.50;28.50;;;;;3.89;100.00;100444.44;4945396;28;49934;-80
2023/03/06 07:57:13;;;;;;;;;33.00;26.50;;;;;4.75;100.00;100607.44;4928635;28;49530;-74
2023/03/06 07:59:38;;;;;;;;;40.00;28.50;;;;;4.53;100.00;100576.16;4925198;28;49536;-76
2023/03/06 08:02:04;;;;;;;;;31.50;26.75;;;;;5.78;100.00;100711.34;4925243;28;49418;-73
2023/03/06 08:04:29;;;;;;;;;33.00;27.75;;;;;4.39;100.00;100505.41;4930972;28;49297;-77
2023/03/06 08:06:58;;;;;;;;;31.75;29.50;;;;;5.38;100.00;100631.69;4930395;28;49394;-70
2023/03/06 08:09:24;;;;;;;;;28.25;22.75;;;;;5.91;100.00;100707.56;4926486;28;49423;-69
2023/03/06 08:11:49;;;;;;;;;28.25;23.00;;;;;5.98;100.00;100714.78;4922686;28;50211;-70
2023/03/06 08:14:14;;;;;;;;;33.00;27.00;;;;;5.85;100.00;100691.66;4920559;28;49814;-70
2023/03/06 08:16:40;;;;;;;;;33.50;31.75;;;;;5.54;100.00;100621.88;4917268;28;49893;-69
2023/03/06 08:19:05;;;;;;;;;33.00;27.25;;;;;5.57;100.00;100621.97;4921686;28;49854;-69
2023/03/06 08:21:30;;;;;;;;;30.00;24.50;;;;;6.21;100.00;100719.16;4922446;28;52154;-69
2023/03/06 08:23:56;;;;;;;;;35.25;27.50;;;;;6.28;100.00;100726.38;4921626;28;49415;-70
2023/03/06 08:26:24;;;;;;;;;32.00;26.75;;;;;6.55;100.00;100763.00;4918470;28;49602;-69
2023/03/06 08:28:51;;;;;;;;;29.25;28.25;;;;;6.58;100.00;100770.06;4912926;28;49808;-70
2023/03/06 08:31:25;;;;;;;;;25.50;25.50;;;;;6.42;100.00;100731.22;4914063;28;50972;-80
2023/03/06 08:33:51;;;;;;;;;33.75;29.50;;;;;6.73;100.00;100775.81;4913562;28;49865;-75
2023/03/06 08:36:17;;;;;;;;;30.00;25.50;;;;;6.83;100.00;100780.53;4914250;28;49819;-81
2023/03/06 08:38:42;;;;;;;;;33.75;27.50;;;;;5.16;100.00;100523.25;4915451;28;49695;-83
2023/03/06 08:41:07;;;;;;;;;32.75;25.75;;;;;6.92;100.00;100815.63;4912471;28;51525;-78
2023/03/06 08:43:34;;;;;;;;;34.75;29.25;;;;;6.70;100.00;100736.59;4915797;28;49718;-80
2023/03/06 08:46:00;;;;;;;;;35.50;31.75;;;;;6.42;100.00;100655.59;4914226;28;49719;-70
2023/03/06 08:48:25;;;;;;;;;45.25;29.75;;;;;7.24;100.00;100791.59;4911852;28;50049;-72
2023/03/06 08:50:52;;;;;;;;;30.75;25.00;;;;;7.30;100.00;100783.06;4913511;28;49931;-72
2023/03/06 08:53:17;;;;;;;;;33.75;30.25;;;;;7.05;100.00;100730.00;4914313;28;49782;-76
2023/03/06 08:55:43;;;;;;;;;27.75;24.00;;;;;5.44;100.00;100488.75;4909658;28;50140;-80
2023/03/06 08:58:08;;;;;;;;;33.50;27.50;;;;;5.98;100.00;100574.06;4915028;28;49970;-79
2023/03/06 09:00:36;;;;;;;;;26.50;22.00;;;;;6.01;100.00;100551.63;4909886;28;49794;-82
2023/03/06 09:03:01;;;;;;;;;29.00;25.25;;;;;6.96;100.00;100716.66;4904363;28;49652;-87
2023/03/06 09:05:27;;;;;;;;;25.00;21.00;;;;;6.80;100.00;100704.78;4916912;28;49830;-83
2023/03/06 09:07:52;;;;;;;;;31.25;29.50;;;;;6.66;100.00;100632.06;4913298;28;49729;-68
2023/03/06 09:10:20;;;;;;;;;36.00;29.50;;;;;7.15;100.00;100672.06;4913441;28;49723;-80
2023/03/06 09:12:46;;;;;;;;;25.75;22.75;;;;;7.72;100.00;100741.78;4912618;28;49910;-80
2023/03/06 09:15:12;;;;;;;;;27.00;22.75;;;;;7.33;100.00;100661.28;4913269;28;50191;-77
2023/03/06 09:17:38;;;;;;;;;31.50;23.75;;;;;7.84;100.00;100759.59;4915137;28;49791;-85
2023/03/06 09:20:05;;;;;;;;;26.50;23.50;;;;;6.57;100.00;100499.66;4914091;28;50039;-78
2023/03/06 09:22:31;;;;;;;;;29.25;24.50;;;;;8.15;100.00;100805.88;4913362;28;49777;-76
2023/03/06 09:24:57;;;;;;;;;36.00;27.00;;;;;8.18;100.00;100764.13;4913295;28;49855;-83
2023/03/06 09:27:22;;;;;;;;;39.50;29.00;;;;;6.44;100.00;100500.94;4914041;28;49853;-77
2023/03/06 09:29:47;;;;;;;;;32.00;28.75;;;;;6.58;100.00;100520.56;4914799;28;49905;-73
2023/03/06 09:32:13;;;;;;;;;33.25;30.75;;;;;7.87;100.00;100700.44;4914360;28;58743;-74
2023/03/06 09:34:38;;;;;;;;;30.50;28.75;;;;;7.41;100.00;100594.53;4913082;28;49739;-75
2023/03/06 09:37:04;;;;;;;;;30.00;26.75;;;;;6.83;100.00;100526.56;4921560;28;49435;-78
2023/03/06 09:39:29;;;;;;;;;28.00;25.50;;;;;8.65;100.00;100814.41;4919856;28;50625;-76
2023/03/06 09:41:57;;;;;;;;;24.50;22.75;;;;;7.73;100.00;100649.50;4924624;28;49478;-76
2023/03/06 09:44:25;;;;;;;;;25.50;23.25;;;;;8.75;100.00;100793.78;4910071;28;49724;-75
2023/03/06 09:47:17;;;;;;;;;33.50;30.00;;;;;8.44;100.00;100715.25;4906810;28;49814;-75
2023/03/06 09:49:59;;;;;;;;;35.00;25.50;;;;;9.00;100.00;100782.25;4906848;28;50782;-75
2023/03/06 09:52:43;;;;;;;;;24.00;20.00;;;;;8.99;100.00;100796.19;4906648;28;50138;-80
2023/03/06 09:55:23;;;;;;;;;29.75;26.75;;;;;9.05;100.00;100792.84;4900725;28;49860;-79
2023/03/06 09:57:57;;;;;;;;;30.75;25.50;;;;;8.86;100.00;100736.47;4902716;28;49879;-81
2023/03/06 10:00:29;;;;;;;;;30.00;27.75;;;;;9.17;100.00;100783.63;4907206;28;50125;-75
2023/03/06 10:03:23;;;;;;;;;29.75;27.75;;;;;8.42;100.00;100628.00;4932563;28;49431;-77
2023/03/06 10:05:56;;;;;;;;;33.00;26.25;;;;;9.01;100.00;100699.34;4894183;28;49771;-77
2023/03/06 10:08:47;;;;;;;;;34.00;27.25;;;;;9.52;100.00;100772.25;4910833;28;49891;-77
2023/03/06 10:11:18;;;;;;;;;30.25;26.75;;;;;9.64;100.00;100791.78;4901505;28;50812;-72
2023/03/06 10:13:52;;;;;;;;;25.25;24.25;;;;;9.40;98.89;100713.47;4912688;28;49846;-74
2023/03/06 10:16:29;;;;;;;;;30.25;26.25;;;;;9.16;96.64;100661.34;4912450;28;50028;-77
2023/03/06 10:19:00;;;;;;;;;30.50;25.50;;;;;9.66;97.00;100731.56;4904570;28;49851;-76
2023/03/06 10:21:39;;;;;;;;;26.25;23.75;;;;;9.83;90.90;100732.81;4901925;28;51219;-78
2023/03/06 10:24:33;;;;;;;;;26.50;18.75;;;;;9.96;89.22;100727.03;4902235;28;49921;-76
2023/03/06 10:27:24;;;;;;;;;25.00;23.50;;;;;10.29;84.98;100763.63;4909673;28;49855;-73
2023/03/06 10:29:59;;;;;;;;;24.75;20.75;;;;;10.40;83.83;100753.38;4907084;28;49720;-79
2023/03/06 10:32:40;;;;;;;;;20.75;18.75;;;;;10.12;81.01;100709.00;4910713;28;49929;-81
2023/03/06 10:35:14;;;;;;;;;19.00;17.75;;;;;10.62;77.56;100778.34;4912880;28;49752;-76
2023/03/06 10:37:40;;;;;;;;;23.00;19.50;;;;;9.73;77.03;100629.47;4914650;28;49851;-79
2023/03/06 10:40:20;;;;;;;;;24.75;22.50;;;;;9.62;74.78;100575.94;4917076;28;49663;-79
2023/03/06 10:42:45;;;;;;;;;15.75;15.75;;;;;8.87;73.71;100455.53;4917568;28;50831;-77
2023/03/06 10:45:14;;;;;;;;;19.75;18.50;;;;;10.25;72.26;100677.84;4930390;28;49377;-80
2023/03/06 10:47:40;;;;;;;;;20.50;17.25;;;;;10.16;66.57;100666.25;4931524;28;49533;-80
2023/03/06 10:50:22;;;;;;;;;25.25;18.25;;;;;10.64;68.70;100762.63;4924770;28;49720;-82
2023/03/06 10:52:59;;;;;;;;;28.25;24.50;;;;;9.93;70.80;100653.50;4928226;28;50074;-77
2023/03/06 10:55:31;;;;;;;;;23.75;18.50;;;;;10.28;68.03;100698.91;4930673;28;49401;-74
2023/03/06 10:57:57;;;;;;;;;25.50;22.25;;;;;10.45;68.96;100728.13;4925232;28;49967;-75
2023/03/06 11:00:32;;;;;;;;;21.00;18.00;;;;;10.46;70.03;100743.00;4922635;28;49743;-74
2023/03/06 11:03:23;;;;;;;;;22.75;18.00;;;;;10.41;68.62;100720.13;4914699;28;50751;-78
2023/03/06 11:06:13;;;;;;;;;21.00;20.00;;;;;10.50;68.01;100752.72;4911799;28;49976;-75
2023/03/06 11:08:41;;;;;;;;;23.75;18.00;;;;;10.22;68.18;100695.25;4915560;28;49835;-74
2023/03/06 11:11:20;;;;;;;;;24.25;21.25;;;;;10.17;69.47;100673.25;4913984;28;49795;-75
2023/03/06 11:13:56;;;;;;;;;17.50;16.00;;;;;9.39;66.80;100522.16;4905080;28;49716;-76
2023/03/06 11:16:27;;;;;;;;;20.50;17.75;;;;;10.49;67.16;100700.19;4914919;28;50102;-82
2023/03/06 11:19:05;;;;;;;;;17.25;16.25;;;;;10.27;66.37;100668.28;4917696;28;49796;-79
2023/03/06 11:21:36;;;;;;;;;26.00;17.00;;;;;9.52;66.46;100539.91;4919090;28;49530;-81
2023/03/06 11:24:15;;;;;;;;;21.50;18.50;;;;;10.79;67.40;100719.16;4918416;28;50865;-77
2023/03/06 11:26:47;;;;;;;;;21.75;20.25;;;;;10.34;66.89;100608.94;4915448;28;49564;-70
2023/03/06 11:29:21;;;;;;;;;25.75;18.00;;;;;11.10;67.48;100730.25;4915422;28;49605;-70
2023/03/06 11:31:53;;;;;;;;;23.75;21.75;;;;;11.08;67.01;100717.06;4913253;28;50030;-70
2023/03/06 11:34:51;;;;;;;;;23.25;18.00;;;;;11.14;67.30;100725.06;4908064;28;49803;-73
2023/03/06 11:37:31;;;;;;;;;24.50;21.75;;;;;11.24;66.30;100720.88;4915447;28;49858;-69
2023/03/06 11:40:13;;;;;;;;;14.25;12.00;;;;;11.36;65.28;100730.69;4915497;28;49833;-71
2023/03/06 11:42:58;;;;;;;;;14.75;13.50;;;;;11.43;61.83;100720.31;4927892;28;49501;-73
2023/03/06 11:45:44;;;;;;;;;18.00;14.25;;;;;11.62;61.83;100718.00;4895677;28;51098;-73
2023/03/06 11:48:22;;;;;;;;;19.75;18.25;;;;;11.59;60.03;100700.44;4921595;28;49565;-72
2023/03/06 11:50:52;;;;;;;;;15.00;14.25;;;;;11.47;60.15;100700.22;4918659;28;50022;-73
2023/03/06 11:53:20;;;;;;;;;15.50;15.25;;;;;11.35;61.10;100711.41;4925865;28;49657;-74
2023/03/06 11:55:51;;;;;;;;;22.25;19.75;;;;;11.35;62.55;100715.78;4928621;28;50196;-74
2023/03/06 11:58:49;;;;;;;;;23.00;20.00;;;;;11.31;62.74;100722.75;4925218;28;49770;-76
2023/03/06 12:01:39;;;;;;;;;21.00;16.00;;;;;11.14;62.92;100713.69;4894666;28;49973;-76
2023/03/06 12:04:05;;;;;;;;;24.00;21.75;;;;;11.18;64.32;100724.25;4915276;28;50109;-76
2023/03/06 12:07:24;;;;;;;;;21.00;19.75;;;;;10.98;64.31;100715.13;4920173;28;50891;-75
2023/03/06 12:09:55;;;;;;;;;19.75;18.50;;;;;10.78;64.71;100679.75;4848946;29;49666;-76
2023/03/06 12:12:34;;;;;;;;;21.75;20.00;;;;;10.35;64.58;100643.94;4847977;29;49955;-76
2023/03/06 12:15:24;;;;;;;;;27.00;23.00;;;;;10.66;65.48;100717.16;4898543;28;50054;-77
2023/03/06 12:17:58;;;;;;;;;21.50;20.75;;;;;10.25;66.55;100675.22;4922149;28;49733;-74
2023/03/06 12:20:42;;;;;;;;;21.50;18.50;;;;;9.94;67.83;100634.34;4913121;28;49614;-75
2023/03/06 12:23:38;;;;;;;;;23.25;20.50;;;;;10.38;68.94;100699.97;4927105;28;49740;-72
2023/03/06 12:26:40;;;;;;;;;19.25;19.00;;;;;10.33;70.30;100701.63;4920166;28;49300;-75
2023/03/06 12:29:24;;;;;;;;;25.75;21.50;;;;;10.40;71.14;100692.13;4920616;28;50179;-74
2023/03/06 12:31:59;;;;;;;;;19.25;16.00;;;;;10.43;72.23;100684.34;4921707;28;49649;-74
2023/03/06 12:34:50;;;;;;;;;27.50;26.25;;;;;10.50;72.12;100684.47;4923309;28;49529;-73
2023/03/06 12:37:34;;;;;;;;;20.00;19.50;;;;;10.68;72.31;100677.81;4918942;28;49483;-73
2023/03/06 12:40:26;;;;;;;;;23.50;21.50;;;;;10.80;72.15;100680.66;4923563;28;50422;-78
2023/03/06 12:43:23;;;;;;;;;20.25;20.25;;;;;10.83;72.59;100681.63;4939119;28;49875;-80
2023/03/06 12:45:54;;;;;;;;;24.25;19.50;;;;;10.88;72.43;100682.56;4921066;28;49547;-72
2023/03/06 12:48:24;;;;;;;;;27.25;23.25;;;;;10.92;72.42;100659.00;4906991;28;49786;-76
2023/03/06 12:50:50;;;;;;;;;26.25;21.75;;;;;10.59;72.73;100584.91;4909034;28;50794;-72
2023/03/06 12:53:35;;;;;;;;;27.50;24.50;;;;;11.11;72.05;100680.38;4920356;28;49739;-72
2023/03/06 12:56:02;;;;;;;;;25.50;22.50;;;;;10.71;72.88;100628.88;4921463;28;49962;-75
2023/03/06 12:58:27;;;;;;;;;25.00;22.75;;;;;11.01;73.73;100682.81;4928294;28;49623;-73
2023/03/06 13:01:04;;;;;;;;;23.25;23.00;;;;;11.03;73.86;100686.34;4926220;28;50357;-80
2023/03/06 13:03:40;;;;;;;;;26.75;24.25;;;;;10.98;74.30;100675.75;4926650;28;49695;-74
2023/03/06 13:06:23;;;;;;;;;26.00;23.75;;;;;11.06;74.57;100676.75;4923967;28;49633;-71
2023/03/06 13:09:03;;;;;;;;;24.50;23.50;;;;;11.13;74.44;100669.88;4911871;28;50040;-74
2023/03/06 13:11:38;;;;;;;;;25.25;22.00;;;;;11.09;75.18;100675.91;4928684;28;51571;-70
2023/03/06 13:14:25;;;;;;;;;23.00;18.75;;;;;11.02;73.89;100676.69;4913566;28;49877;-74
2023/03/06 13:16:51;;;;;;;;;10.50;9.25;;;;;10.75;73.30;100659.56;4913330;28;49699;-72
2023/03/06 13:19:23;;;;;;;;;25.25;21.75;;;;;10.72;76.22;100666.53;4912374;28;50167;-76
2023/03/06 13:21:54;;;;;;;;;19.75;19.50;;;;;10.70;76.43;100662.97;4912009;28;51735;-73
2023/03/06 13:24:28;;;;;;;;;27.25;23.75;;;;;10.67;78.12;100652.41;4913464;28;49724;-74
2023/03/06 13:26:53;;;;;;;;;25.00;24.00;;;;;10.65;78.39;100655.00;4905433;28;49832;-77
2023/03/06 13:30:01;;;;;;;;;24.25;23.75;;;;;10.43;78.89;100631.84;4912894;28;49802;-74
2023/03/06 13:32:36;;;;;;;;;25.00;22.75;;;;;10.31;79.66;100645.59;4867764;28;49977;-78
2023/03/06 13:35:21;;;;;;;;;24.25;24.25;;;;;9.74;80.95;100564.84;4910923;28;49672;-77
2023/03/06 13:37:49;;;;;;;;;30.75;25.50;;;;;8.87;81.31;100387.47;4912758;28;50022;-76
2023/03/06 13:40:25;;;;;;;;;26.75;21.50;;;;;9.21;81.94;100448.44;4912933;28;49964;-76
2023/03/06 13:42:53;;;;;;;;;26.25;23.75;;;;;10.38;82.16;100660.63;4912824;28;50594;-78
2023/03/06 13:45:26;;;;;;;;;27.25;23.25;;;;;9.79;82.36;100571.06;4921450;28;49599;-74
2023/03/06 13:47:54;;;;;;;;;25.50;23.50;;;;;10.30;83.45;100654.31;4906461;28;49948;-72
2023/03/06 13:50:30;;;;;;;;;23.75;23.00;;;;;9.90;83.32;100605.38;4913344;28;49712;-82
2023/03/06 13:53:07;;;;;;;;;29.50;22.50;;;;;10.19;84.16;100651.44;4910072;28;50962;-81
2023/03/06 13:55:50;;;;;;;;;19.50;19.50;;;;;10.19;84.65;100647.94;4915518;28;49825;-88
2023/03/06 13:58:29;;;;;;;;;26.00;23.25;;;;;9.71;84.96;100546.44;4913463;28;49987;-87
2023/03/06 14:01:17;;;;;;;;;24.75;23.50;;;;;10.24;84.58;100643.72;4916290;28;49605;-83
2023/03/06 14:04:00;;;;;;;;;26.50;22.25;;;;;10.35;85.08;100636.94;4914869;28;51002;-89
2023/03/06 14:06:34;;;;;;;;;27.00;24.75;;;;;10.01;84.47;100554.03;4917012;28;50333;-82
2023/03/06 14:09:05;;;;;;;;;23.75;22.25;;;;;8.86;84.26;100406.66;4913454;28;50147;-81
2023/03/06 14:11:33;;;;;;;;;27.00;24.00;;;;;9.33;84.49;100478.38;4910108;28;49839;-77
2023/03/06 14:13:59;;;;;;;;;23.00;23.00;;;;;9.97;84.37;100560.97;4910901;28;49933;-72
2023/03/06 14:16:28;;;;;;;;;23.75;20.50;;;;;10.16;84.43;100556.97;4913520;28;49723;-88
2023/03/06 14:18:56;;;;;;;;;20.75;19.50;;;;;10.21;84.00;100544.78;4914270;28;49776;-87
2023/03/06 14:21:29;;;;;;;;;19.25;13.50;;;;;10.74;83.77;100636.81;4911430;28;49931;-78
2023/03/06 14:23:59;;;;;;;;;22.50;20.00;;;;;10.20;84.18;100571.00;4912236;28;50603;-79
2023/03/06 14:26:27;;;;;;;;;23.75;20.00;;;;;9.25;82.57;100409.22;4914305;28;49810;-81
2023/03/06 14:29:02;;;;;;;;;20.25;20.00;;;;;10.40;83.58;100652.75;4914037;28;49778;-83
2023/03/06 14:31:30;;;;;;;;;18.75;18.00;;;;;10.15;83.92;100607.66;4912800;28;50087;-75
2023/03/06 14:33:59;;;;;;;;;20.50;19.00;;;;;9.25;84.81;100459.00;4912221;28;51164;-74
2023/03/06 14:36:33;;;;;;;;;17.00;17.00;;;;;10.28;84.31;100635.03;4912323;28;49941;-74
2023/03/06 14:39:06;;;;;;;;;10.00;10.00;;;;;9.81;85.62;100540.53;4912030;28;49835;-73
2023/03/06 14:41:34;;;;;;;;;19.25;18.00;;;;;10.37;85.05;100632.59;4914570;28;49613;-74
2023/03/06 14:44:16;;;;;;;;;24.75;20.25;;;;;10.45;85.55;100622.25;4917230;28;49830;-75
2023/03/06 14:46:42;;;;;;;;;20.50;19.25;;;;;10.34;85.41;100598.44;4938349;28;49778;-76
2023/03/06 14:49:07;;;;;;;;;22.00;20.00;;;;;10.56;85.32;100623.34;4930054;28;49498;-74
2023/03/06 14:51:41;;;;;;;;;15.00;15.00;;;;;10.49;83.67;100600.44;4930106;28;49483;-74
2023/03/06 14:54:14;;;;;;;;;19.25;12.50;;;;;10.63;83.52;100606.84;4923218;28;49701;-74
2023/03/06 14:56:42;;;;;;;;;19.25;17.50;;;;;10.65;84.32;100626.13;4929221;28;49462;-75
2023/03/06 14:59:15;;;;;;;;;21.00;18.75;;;;;10.80;83.45;100602.75;4929931;28;49349;-74
2023/03/06 15:01:48;;;;;;;;;17.25;16.00;;;;;9.73;83.32;100406.66;4929492;28;49403;-74
2023/03/06 15:04:25;;;;;;;;;20.50;18.50;;;;;10.91;81.97;100549.56;4928063;28;49456;-74
2023/03/06 15:06:52;;;;;;;;;20.25;19.25;;;;;9.46;81.15;100306.63;4930013;28;49348;-75
2023/03/06 15:09:24;;;;;;;;;16.75;16.50;;;;;10.62;81.66;100509.72;4929751;28;49407;-76
2023/03/06 15:12:00;;;;;;;;;17.25;14.50;;;;;10.70;81.28;100518.56;4932806;28;49448;-77
2023/03/06 15:14:33;;;;;;;;;18.25;15.75;;;;;9.98;81.68;100402.75;4931562;28;50211;-75
2023/03/06 15:17:17;;;;;;;;;20.75;16.00;;;;;11.13;81.86;100602.47;4916535;28;49582;-73
2023/03/06 15:19:44;;;;;;;;;18.25;15.75;;;;;9.34;81.68;100322.09;4909126;28;50003;-77
2023/03/06 15:22:36;;;;;;;;;19.00;18.00;;;;;11.05;82.32;100605.81;4915952;28;49684;-74
2023/03/06 15:25:17;;;;;;;;;16.75;15.25;;;;;9.72;82.16;100422.38;4912069;28;50660;-75
2023/03/06 15:27:52;;;;;;;;;17.50;17.25;;;;;9.46;82.44;100336.31;4914532;28;49838;-75
2023/03/06 15:30:22;;;;;;;;;13.25;13.25;;;;;10.14;82.96;100477.38;4913688;28;50236;-73
2023/03/06 15:32:47;;;;;;;;;13.00;12.00;;;;;9.86;83.34;100475.97;4914850;28;50246;-76
2023/03/06 15:35:28;;;;;;;;;14.50;13.25;;;;;10.51;83.32;100536.63;4914345;28;52532;-73
2023/03/06 15:38:00;;;;;;;;;9.50;9.50;;;;;10.76;82.59;100565.94;4913630;28;50178;-75
2023/03/06 15:40:29;;;;;;;;;12.75;9.00;;;;;10.66;82.16;100557.03;4915111;28;51087;-75
2023/03/06 15:42:56;;;;;;;;;11.75;11.75;;;;;9.36;80.67;100330.84;4915455;28;49640;-73
2023/03/06 15:45:26;;;;;;;;;9.50;8.75;;;;;10.88;81.30;100614.28;4904662;28;49794;-74
2023/03/06 15:47:53;;;;;;;;;14.00;12.50;;;;;10.89;80.93;100578.41;4907448;28;49796;-74
2023/03/06 15:50:28;;;;;;;;;12.50;12.50;;;;;9.88;79.83;100445.41;4905451;28;49877;-77
2023/03/06 15:52:53;;;;;;;;;12.25;12.25;;;;;9.56;79.71;100386.28;4914225;28;49938;-78
2023/03/06 15:55:22;;;;;;;;;11.50;9.50;;;;;10.41;80.58;100520.69;4913521;28;50433;-75
2023/03/06 15:57:51;;;;;;;;;14.50;10.50;;;;;9.04;80.64;100304.94;4914224;28;49831;-77
2023/03/06 16:00:27;;;;;;;;;15.25;11.25;;;;;10.50;80.65;100524.38;4914456;28;49742;-79
2023/03/06 16:02:53;;;;;;;;;14.00;13.00;;;;;10.61;79.05;100527.16;4914385;28;50037;-76
2023/03/06 16:05:34;;;;;;;;;12.00;11.25;;;;;10.09;78.84;100451.91;5041906;28;49616;-78
2023/03/06 16:07:59;;;;;;;;;8.75;7.25;;;;;9.59;77.83;100366.25;5024516;28;49857;-78
2023/03/06 16:10:28;;;;;;;;;10.75;10.25;;;;;10.84;76.93;100574.84;5023415;28;49710;-78
2023/03/06 16:13:01;;;;;;;;;7.50;7.50;;;;;9.67;77.51;100384.72;5022517;28;50662;-76
2023/03/06 16:15:31;;;;;;;;;12.00;10.00;;;;;9.56;77.82;100360.94;5022953;28;49678;-78
2023/03/06 16:17:58;;;;;;;;;11.50;10.25;;;;;9.42;77.27;100339.72;5016680;28;49824;-75
2023/03/06 16:20:25;;;;;;;;;7.00;7.00;;;;;9.90;77.08;100443.69;4991979;27;49862;-77
2023/03/06 16:22:52;;;;;;;;;14.25;10.25;;;;;10.11;77.96;100485.16;5021803;28;50675;-74
2023/03/06 16:25:19;;;;;;;;;7.00;7.00;;;;;10.22;78.59;100517.75;5021805;28;50005;-71
2023/03/06 16:27:59;;;;;;;;;11.75;9.50;;;;;10.18;77.58;100513.28;5022704;28;50048;-71
2023/03/06 16:30:27;;;;;;;;;9.00;7.50;;;;;10.44;78.81;100570.63;5021449;28;49903;-71
2023/03/06 16:32:53;;;;;;;;;7.75;7.75;;;;;8.86;78.41;100296.72;5010175;27;50054;-75
2023/03/06 16:35:18;;;;;;;;;5.75;5.75;;;;;8.41;78.20;100263.53;5022377;28;49777;-75
2023/03/06 16:37:44;;;;;;;;;7.50;7.50;;;;;8.93;78.79;100350.97;5022373;28;49925;-76
2023/03/06 16:40:36;;;;;;;;;6.00;6.00;;;;;8.92;79.08;100354.44;5005683;28;50056;-77
2023/03/06 16:43:03;;;;;;;;;10.25;8.00;;;;;9.56;79.99;100471.00;5020373;28;51130;-74
2023/03/06 16:45:28;;;;;;;;;7.50;7.00;;;;;8.43;80.46;100282.75;5023219;28;50018;-76
2023/03/06 16:47:53;;;;;;;;;7.00;6.50;;;;;8.48;81.30;100295.91;5010189;28;50245;-73
2023/03/06 16:50:28;;;;;;;;;8.75;7.25;;;;;8.92;80.77;100409.41;5020700;28;50273;-71
2023/03/06 16:52:55;;;;;;;;;8.00;8.00;;;;;8.64;81.48;100407.03;5022652;28;49939;-76
2023/03/06 16:55:22;;;;;;;;;8.50;5.25;;;;;9.49;81.03;100500.56;5023988;28;49899;-76
2023/03/06 16:57:50;;;;;;;;;6.75;5.50;;;;;9.70;80.22;100605.84;5021990;28;49842;-72
2023/03/06 17:00:17;;;;;;;;;8.25;7.50;;;;;9.16;80.62;100464.03;5019894;28;50040;-73
2023/03/06 17:02:43;;;;;;;;;3.75;3.75;;;;;8.79;80.33;100405.66;5009732;28;51247;-71
2023/03/06 17:05:10;;;;;;;;;7.00;5.50;;;;;9.44;81.21;100538.84;5021506;28;49750;-74
2023/03/06 17:07:36;;;;;;;;;10.00;8.50;;;;;7.57;81.24;100239.75;5021546;28;49678;-76
2023/03/06 17:10:04;;;;;;;;;10.25;8.75;;;;;8.96;81.97;100450.50;5020443;28;50136;-74
2023/03/06 17:12:30;;;;;;;;;7.50;7.50;;;;;9.16;81.24;100487.59;5019850;28;52048;-71
2023/03/06 17:14:55;;;;;;;;;7.75;6.25;;;;;9.16;81.21;100501.56;5017952;28;50697;-70
2023/03/06 17:17:21;;;;;;;;;6.50;5.50;;;;;8.84;81.35;100445.00;5006435;28;50042;-78
2023/03/06 17:19:48;;;;;;;;;7.50;7.00;;;;;8.89;79.79;100459.09;5007879;28;50019;-69